Bei Facebook empfehlenBei Twitter postenGoogle plusPinterest

Das Wetter im Erzgebirge am 09.06.2016

Wetter und Klima am 09.06.2016 Holzhau im Erzgebirge (630m ü.NN)
Letzte gemessene Temperatur und Uhrzeit der Messung23:45:00 Uhr8.20 °C
Temperatur (Maximum / Höchstwert) und Uhrzeit der Messung17:30:00 Uhr19.60 °C
Temperatur (Minimum / Tiefstwert) und Uhrzeit der Messung23:45:008.20 °C
Errechneter Absolutwert der Temperaturschwankungen zwischen Tmin und Tmax des Tages11.40 K
Errechnete Tagesmitteltemperatur14.16875 °C
Gesamt - Niederschlag des Tages (in flüssiger Form)0.00 Liter / m²
Luftdruck (Maximum / Höchstwert) und Zeitpunkt der Messung01:15:00 Uhr1013.70 hPa
Luftdruck (Minimum / Tiefstwert) und Zeitpunkt der Messung21:15:00 Uhr1011.40 hPa
Errechneter Absolutwert der Luftdruckschwankungen des Tages2.30 hPa
Höchste gemessene Windgeschwindigkeit und Uhrzeit der Messung23:45:00 Uhr0.00 km/h
Errechnete Windhäufigkeit in Relation zu den Messwerten des Tages0.00000 %
Niedrigste Windkühle (Windchill) und Zeitpunkt der Messung23:45:00 Uhr8.20 °C
Taupunkt (Maximum / Höchstwert) und Uhrzeit der Messung13:45:00 Uhr13.50 °C
Taupunkt (Minimum / Tiefstwert) und Uhrzeit der Messung23:30:006.10 °C
Anzahl der automatisch eingelesenen Messwerte 96

Detaillierte Wetter- und Klima- Messwerte für den 09.06.2016 in Holzhau im Erzgebirge (630m ü.NN)
ZeitTemperaturLuftdruckRel. LuftfeuchteWindWindrichtungWindchillTaupunktNiederschlag l/m²
23:45:008.20 °C1011.60 hPa87.00 %6.20 °C 
23:30:008.30 °C1011.80 hPa86.00 %6.10 °C 
23:15:008.40 °C1011.70 hPa86.00 %6.20 °C 
23:00:008.60 °C1011.80 hPa85.00 %6.20 °C 
22:45:009.10 °C1011.60 hPa84.00 %6.50 °C 
22:30:009.30 °C1011.80 hPa83.00 %6.60 °C 
22:15:009.70 °C1011.60 hPa82.00 %6.80 °C 
22:00:0010.20 °C1011.80 hPa81.00 %7.10 °C 
21:45:0010.90 °C1011.60 hPa79.00 %7.40 °C 
21:30:0011.70 °C1011.70 hPa78.00 %8.00 °C 
21:15:0012.50 °C1011.40 hPa77.00 %8.60 °C 
21:00:0013.40 °C1011.60 hPa76.00 %9.30 °C 
20:45:0014.10 °C1011.50 hPa74.00 %9.50 °C 
20:30:0014.30 °C1011.50 hPa74.00 %9.70 °C 
20:15:0014.80 °C1011.70 hPa72.00 %9.80 °C 
20:00:0015.20 °C1011.80 hPa71.00 %10.00 °C 
19:45:0016.20 °C1011.80 hPa69.00 %10.50 °C 
19:30:0016.90 °C1011.90 hPa69.00 %11.20 °C 
19:15:0016.90 °C1011.90 hPa69.00 %11.20 °C 
19:00:0017.10 °C1011.80 hPa68.00 %11.20 °C 
18:45:0017.00 °C1011.70 hPa68.00 %11.10 °C 
18:30:0017.20 °C1011.60 hPa67.00 %11.00 °C 
18:15:0017.90 °C1011.80 hPa66.00 %11.50 °C 
18:00:0017.90 °C1011.90 hPa65.00 %11.20 °C 
17:45:0019.30 °C1011.80 hPa63.00 %12.10 °C 
17:30:0019.60 °C1011.70 hPa65.00 %12.80 °C 
17:15:0018.10 °C1011.70 hPa67.00 %11.90 °C 
17:00:0017.90 °C1012.00 hPa68.00 %11.90 °C 
16:45:0017.80 °C1011.90 hPa68.00 %11.80 °C 
16:30:0018.10 °C1012.00 hPa68.00 %12.10 °C 
16:15:0018.20 °C1012.10 hPa67.00 %12.00 °C 
16:00:0018.80 °C1012.20 hPa67.00 %12.50 °C 
15:45:0019.10 °C1012.30 hPa66.00 %12.60 °C 
15:30:0018.50 °C1012.10 hPa69.00 %12.70 °C 
15:15:0017.90 °C1012.30 hPa70.00 %12.40 °C 
15:00:0017.30 °C1012.40 hPa69.00 %11.60 °C 
14:45:0017.40 °C1012.40 hPa67.00 %11.20 °C 
14:30:0018.10 °C1012.50 hPa67.00 %11.90 °C 
14:15:0018.20 °C1012.60 hPa67.00 %12.00 °C 
14:00:0019.30 °C1012.70 hPa67.00 %13.00 °C 
13:45:0018.90 °C1012.60 hPa71.00 %13.50 °C 
13:30:0017.60 °C1012.70 hPa70.00 %12.10 °C 
13:15:0017.40 °C1012.90 hPa73.00 %12.50 °C 
13:00:0016.10 °C1012.90 hPa74.00 %11.50 °C 
12:45:0015.80 °C1012.80 hPa73.00 %11.00 °C 
12:30:0016.90 °C1012.90 hPa74.00 %12.20 °C 
12:15:0016.40 °C1012.80 hPa76.00 %12.20 °C 
12:00:0015.40 °C1013.10 hPa76.00 %11.20 °C 
11:45:0015.30 °C1013.10 hPa75.00 %10.90 °C 
11:30:0016.40 °C1013.10 hPa73.00 %11.60 °C 
11:15:0016.40 °C1013.00 hPa74.00 %11.80 °C 
11:00:0016.10 °C1013.10 hPa75.00 %11.70 °C 
10:45:0015.60 °C1013.00 hPa76.00 %11.40 °C 
10:30:0015.90 °C1013.00 hPa76.00 %11.70 °C 
10:15:0015.90 °C1013.00 hPa78.00 %12.10 °C 
10:00:0015.80 °C1013.00 hPa79.00 %12.20 °C 
09:45:0015.90 °C1013.00 hPa81.00 %12.60 °C 
09:30:0014.90 °C1013.10 hPa83.00 %12.00 °C 
09:15:0014.40 °C1013.00 hPa86.00 %12.10 °C 
09:00:0013.60 °C1013.00 hPa86.00 %11.30 °C 
08:45:0012.90 °C1012.90 hPa86.00 %10.60 °C 
08:30:0012.90 °C1013.00 hPa88.00 %11.00 °C 
08:15:0012.80 °C1012.90 hPa88.00 %10.90 °C 
08:00:0012.40 °C1012.90 hPa89.00 %10.60 °C 
07:45:0012.10 °C1012.80 hPa89.00 %10.30 °C 
07:30:0011.90 °C1012.80 hPa89.00 %10.10 °C 
07:15:0011.90 °C1012.80 hPa89.00 %10.10 °C 
07:00:0011.80 °C1013.00 hPa89.00 %10.00 °C 
06:45:0011.60 °C1012.90 hPa89.00 %9.90 °C 
06:30:0011.60 °C1012.90 hPa89.00 %9.90 °C 
06:15:0011.50 °C1012.90 hPa89.00 %9.80 °C 
06:00:0011.60 °C1013.00 hPa89.00 %9.90 °C 
05:45:0011.50 °C1012.90 hPa89.00 %9.80 °C 
05:30:0011.60 °C1012.80 hPa89.00 %9.90 °C 
05:15:0011.60 °C1012.80 hPa88.00 %9.70 °C 
05:00:0011.70 °C1013.00 hPa88.00 %9.80 °C 
04:45:0011.80 °C1012.90 hPa88.00 %9.90 °C 
04:30:0011.80 °C1012.90 hPa88.00 %9.90 °C 
04:15:0011.90 °C1012.80 hPa88.00 %10.00 °C 
04:00:0011.90 °C1013.00 hPa88.00 %10.00 °C 
03:45:0011.90 °C1012.80 hPa87.00 %9.80 °C 
03:30:0012.10 °C1012.90 hPa87.00 %10.00 °C 
03:15:0012.10 °C1013.20 hPa87.00 %10.00 °C 
03:00:0012.00 °C1013.10 hPa87.00 %9.90 °C 
02:45:0011.90 °C1013.20 hPa87.00 %9.80 °C 
02:30:0012.10 °C1013.40 hPa86.00 %9.80 °C 
02:15:0012.30 °C1013.40 hPa86.00 %10.00 °C 
02:00:0012.30 °C1013.40 hPa86.00 %10.00 °C 
01:45:0012.10 °C1013.50 hPa85.00 %9.70 °C 
01:30:0011.80 °C1013.50 hPa85.00 %9.40 °C 
01:15:0011.40 °C1013.70 hPa84.00 %8.80 °C 
01:00:0011.20 °C1013.60 hPa83.00 %8.40 °C 
00:45:0011.50 °C1013.50 hPa82.00 %8.50 °C 
00:30:0011.90 °C1013.50 hPa82.00 %8.90 °C 
00:15:0012.20 °C1013.40 hPa82.00 %9.20 °C 
00:00:0012.50 °C1013.50 hPa82.00 %9.50 °C 

Permanenter Link zu dieser Seite: Wetter im Erzgebirge am 09.06.2016
Performance-Info: Die Erstellung der Seite / Statistik(en) / Tabelle(n) erforderte 5 Datenbankserver-Abfrage(n) und dauerte 105 Millisekunden. (Dieser Messwert ist von der Gesamt-Auslastung des Servers abhängig.)
Erzgebirge - Wetter | Erzgebirge - Wetter (Mobilgeräte) | Komplette Klimadatenbank